Malaga, Washington
Current Conditions -  °F | °C
As of 12:55 AM on Thursday 23 Oct 2014 (Local Time) from KEAT Reporting Station
Few Clouds Few Clouds  
Wind Chill: 50°   Ceiling: Unl
Heat Index: 50°   Visibility: 10mi
Dew Point: 45°   Wind: 8mph
Humidity: 83%   Direction: 280°W
Pressure: 29.71"   Gusts: NA
Location:  47.35°N, 120.2°W
Report Text: KEAT 230755Z AUTO 28007KT 10SM FEW019 10/07 A2971 RMK AO2 RAB05E26 SLP062 P0000 T01000072 401170094
Loading
Personal Weather Stations






























Interactive Weather Map
Tropical Storm Tracking
New forecast layout! Learn more

10-Day Weather Forecast

Advertisements
Track Severe Weather on mobile